Portada
METAR-TAF:

METAR-TAF

Aeroports :

Meixad, Iran

latitud: 36-16N, longitud: 059-38E, altitud: 989 m

Observació

L'informe es va fer fa 26 minuts, a les 21:00 UTC
Vent 4 kt del Sud/Sud-Oest
Temperatura 23°C
Humitat 33%
Pressió 1018 hPa
Visibilitat 10 km o més
sense núvols per sota de 1500 mi sense presència de cumulonimbus.

METAR: OIMM 252100Z 20004KT CAVOK 23/06 Q1018 A3006

Hora: 01:56 (21:26 UTC)

Pronòstic

L'informe es va fer fa 3 hores i 56 minuts, a les 17:30 UTC
Pronòstic vàlid del 25 a les 18 UTC al 26 a les 24 UTC
Vent 8 kt del Sud/Sud-Est
Visibilitat: 8000 m
Temporalment
l' 26 a les 10 UTC al 26 a les 16 UTC
Vent 12 kt del Est/Nord-Est

TAF: OIMM 251730Z 2518/2624 16008KT 8000 NSC TEMPO 2610/2616 06012KT

Observacions i pronòstics meteorològics de més de 4000 aeroports (METAR i TAF).

Les estacions disponibles són els punts grocs i vermells al mapa.

Posi el ratolí al punt desitjat per veure el nom de l'estació.

Feu clic per veure les observacions i els pronòstics meteorològics.

Per canviar el mapa: feu clic els botons verds amb una creu de color negre per apropar; al botó verd amb un guió per allunyar la imatge; o en les fletxes verdes per a mapes adjacents.


METAR-TAF: